Vango — ZCOX3 — position and weather

sailwx.info

Track history (hours):
 
Tides and Currents Weather Stations Pressure Air Temp Water Temp Dewpoint Dewpoint Depression Visibility Wind Speed Wind Dir Waves Ship Positions

Vango

Last reported at 2018-Mar-23 11:40 UTC. Time now 2018-May-22 15:31 UTC.
Position N 26°46' W 080°03'.
Warning: this ship's position is months out of date.

Date/timePositionNaut miles runAvg speedWind from/ knotsBaromVisibWave heightAir tempDewpointWater temp
2018-Mar-23 11:40N 26°46' W 080°03'0 0.5
2018-Mar-23 11:30N 26°46' W 080°03'  
2018-Mar-20 11:02N 25°07' W 077°15'011.7
2018-Mar-20 11:00N 25°07' W 077°15'2 1.4
2018-Mar-20 09:45N 25°06' W 077°14'48 1.0
2018-Mar-18 10:26N 24°23' W 076°49'613.6
2018-Mar-18 09:59N 24°21' W 076°42'4 8.1
2018-Mar-18 09:30N 24°22' W 076°38'0 0.1
2018-Mar-18 09:01N 24°23' W 076°38'0 0.0
2018-Mar-18 08:30N 24°23' W 076°38'0 0.0
2018-Mar-18 08:00N 24°23' W 076°38'0 0.0
2018-Mar-18 07:30N 24°23' W 076°38'0 0.0
2018-Mar-18 07:00N 24°23' W 076°38'0 0.0
2018-Mar-18 06:30N 24°23' W 076°38'0 0.0
2018-Mar-18 06:00N 24°23' W 076°38'0 0.0
2018-Mar-18 05:30N 24°23' W 076°38'0 0.0
2018-Mar-18 05:00N 24°23' W 076°38'0 0.0
2018-Mar-18 04:30N 24°23' W 076°38'0 0.0
2018-Mar-18 04:00N 24°23' W 076°38'0 0.0
2018-Mar-18 03:30N 24°23' W 076°38'0 0.0
2018-Mar-18 03:00N 24°23' W 076°38'0 0.0
2018-Mar-18 02:28N 24°23' W 076°38'0 0.0
2018-Mar-18 02:00N 24°23' W 076°38'0 0.0
2018-Mar-18 01:30N 24°23' W 076°38'0 0.0
2018-Mar-18 01:00N 24°23' W 076°38'0 0.0
2018-Mar-18 00:26N 24°23' W 076°38'0 0.0
2018-Mar-18 00:00N 24°23' W 076°38'0 0.0
2018-Mar-17 23:30N 24°23' W 076°38'0 0.0
2018-Mar-17 23:00N 24°23' W 076°38'0 0.0
2018-Mar-17 22:30N 24°23' W 076°38'0 0.0
2018-Mar-17 22:00N 24°23' W 076°38'0 0.0
2018-Mar-17 21:31N 24°23' W 076°38'0 0.0
2018-Mar-17 21:00N 24°23' W 076°38'0 0.0
2018-Mar-17 20:30N 24°23' W 076°38'0 0.0
2018-Mar-17 20:00N 24°23' W 076°38'0 0.0
2018-Mar-17 19:30N 24°23' W 076°38'0 0.0
2018-Mar-17 19:00N 24°23' W 076°38'0 0.0
2018-Mar-17 18:30N 24°23' W 076°38'0 0.0
2018-Mar-17 18:00N 24°23' W 076°38'0 0.0
2018-Mar-17 17:30N 24°23' W 076°38'0 0.0
2018-Mar-17 16:49N 24°23' W 076°38'0 0.0
2018-Mar-17 16:14N 24°23' W 076°38'0 0.0
2018-Mar-17 16:01N 24°23' W 076°38'0 0.0
2018-Mar-17 15:30N 24°23' W 076°38'0 0.0
2018-Mar-17 15:00N 24°23' W 076°38'0 0.0
2018-Mar-17 14:30N 24°23' W 076°38'0 0.0
2018-Mar-17 14:00N 24°23' W 076°38'0 0.0
2018-Mar-17 13:30N 24°23' W 076°38'5 5.2
2018-Mar-17 12:30N 24°18' W 076°37'5 4.8
2018-Mar-17 11:30N 24°15' W 076°32'0 0.0
2018-Mar-17 11:00N 24°15' W 076°32'0 0.0
2018-Mar-17 10:30N 24°15' W 076°32'0 0.0
2018-Mar-17 10:00N 24°15' W 076°32'0 0.0
2018-Mar-17 09:30N 24°15' W 076°32'0 0.0
2018-Mar-17 09:00N 24°15' W 076°32'0 0.0
2018-Mar-17 08:30N 24°15' W 076°32'0 0.0
2018-Mar-17 08:00N 24°15' W 076°32'0 0.0
2018-Mar-17 07:30N 24°15' W 076°32'0 0.0
2018-Mar-17 07:00N 24°15' W 076°32'0 0.0
2018-Mar-17 06:30N 24°15' W 076°32'0 0.0
2018-Mar-17 06:00N 24°15' W 076°32'0 0.0
2018-Mar-17 05:30N 24°15' W 076°32'0 0.0
2018-Mar-17 05:00N 24°15' W 076°32'0 0.0
2018-Mar-17 04:30N 24°15' W 076°32'0 0.0
2018-Mar-17 04:00N 24°15' W 076°32'0 0.0
2018-Mar-17 03:30N 24°15' W 076°32'0 0.0
2018-Mar-17 03:00N 24°15' W 076°32'0 0.0
2018-Mar-17 02:30N 24°15' W 076°32'0 0.0
2018-Mar-17 02:00N 24°15' W 076°32'0 0.0
2018-Mar-17 01:30N 24°15' W 076°32'0 0.0
2018-Mar-17 01:00N 24°15' W 076°32'0 0.0
2018-Mar-17 00:30N 24°15' W 076°32'0 0.0
2018-Mar-16 23:58N 24°15' W 076°32'0 0.0
2018-Mar-16 23:30N 24°15' W 076°32'0 0.0
2018-Mar-16 23:00N 24°15' W 076°32'0 0.0
2018-Mar-16 22:30N 24°15' W 076°32'0 0.0
2018-Mar-16 22:00N 24°15' W 076°32'0 0.0
2018-Mar-16 21:30N 24°15' W 076°32'0 0.0
2018-Mar-16 21:00N 24°15' W 076°32'0 0.0
2018-Mar-16 20:30N 24°15' W 076°32'0 0.0
2018-Mar-16 20:00N 24°15' W 076°32'0 0.0
2018-Mar-16 19:30N 24°15' W 076°32'0 0.0
2018-Mar-16 18:23N 24°15' W 076°32'0 0.0
2018-Mar-16 18:00N 24°15' W 076°32'0 0.0
2018-Mar-16 17:30N 24°15' W 076°32'0 0.0
2018-Mar-16 17:00N 24°15' W 076°32'0 0.0
2018-Mar-16 16:27N 24°15' W 076°32'0 0.0
2018-Mar-16 16:00N 24°15' W 076°32'0 0.0
2018-Mar-16 15:30N 24°15' W 076°32'0 0.0
2018-Mar-16 15:00N 24°15' W 076°32'0 0.0
2018-Mar-16 14:30N 24°15' W 076°32'0 0.0
2018-Mar-16 14:00N 24°15' W 076°32'0 0.0
2018-Mar-16 13:30N 24°15' W 076°32'0 0.0
2018-Mar-16 13:00N 24°15' W 076°32'0 0.0
2018-Mar-16 12:30N 24°15' W 076°32'0 0.0
2018-Mar-16 12:00N 24°15' W 076°32'0 0.0
2018-Mar-16 11:30N 24°15' W 076°32'0 0.0
2018-Mar-16 11:00N 24°15' W 076°32'0 0.0
2018-Mar-16 10:30N 24°15' W 076°32'0 0.0
2018-Mar-16 10:00N 24°15' W 076°32'0 0.0
2018-Mar-16 09:30N 24°15' W 076°32'0 0.0
2018-Mar-16 09:00N 24°15' W 076°32'0 0.0
2018-Mar-16 08:30N 24°15' W 076°32'0 0.0
2018-Mar-16 08:00N 24°15' W 076°32'0 0.0
2018-Mar-16 07:30N 24°15' W 076°32'0 0.0
2018-Mar-16 07:00N 24°15' W 076°32'0 0.0
2018-Mar-16 06:30N 24°15' W 076°32'0 0.0
2018-Mar-16 06:00N 24°15' W 076°32'0 0.0
2018-Mar-16 05:30N 24°15' W 076°32'0 0.0
2018-Mar-16 05:00N 24°15' W 076°32'0 0.0
2018-Mar-16 04:30N 24°15' W 076°32'0 0.0
2018-Mar-16 04:00N 24°15' W 076°32'0 0.0
2018-Mar-16 03:30N 24°15' W 076°32'0 0.0
2018-Mar-16 03:00N 24°15' W 076°32'0 0.0
2018-Mar-16 02:30N 24°15' W 076°32'0 0.0
2018-Mar-16 02:00N 24°15' W 076°32'0 0.0
2018-Mar-16 01:30N 24°15' W 076°32'0 0.0
2018-Mar-16 00:57N 24°15' W 076°32'0 0.0
2018-Mar-16 00:24N 24°15' W 076°32'0 0.0
2018-Mar-16 00:00N 24°15' W 076°32'0 0.0
2018-Mar-15 23:27N 24°15' W 076°32'0 0.0
2018-Mar-15 23:00N 24°15' W 076°32'0 0.0
2018-Mar-15 22:30N 24°15' W 076°32'0 0.0
2018-Mar-15 22:00N 24°15' W 076°32'0 0.0
2018-Mar-15 21:30N 24°15' W 076°32'0 0.0
2018-Mar-15 21:00N 24°15' W 076°32'0 0.0
2018-Mar-15 18:00N 24°15' W 076°32'0 0.0
2018-Mar-15 17:30N 24°15' W 076°32'0 0.0
2018-Mar-15 17:00N 24°15' W 076°32'0 0.0
2018-Mar-15 16:31N 24°15' W 076°32'0 0.0
2018-Mar-15 16:00N 24°15' W 076°32'0 0.0
2018-Mar-15 15:30N 24°15' W 076°32'0 0.3
2018-Mar-15 15:00N 24°15' W 076°32'3 6.1
2018-Mar-15 14:30N 24°16' W 076°35'4 8.1
2018-Mar-15 14:00N 24°18' W 076°32'  
Track history (hours):
 
Tides and Currents Weather Stations Pressure Air Temp Water Temp Dewpoint Dewpoint Depression Visibility Wind Speed Wind Dir Waves Ship Positions

Vango

Last reported at 2018-Mar-23 11:40 UTC. Time now 2018-May-22 15:31 UTC.
Position N 26°46' W 080°03'.
Warning: this ship's position is months out of date.

Date/timePositionNaut miles runAvg speedWind from/ knotsBaromVisibWave heightAir tempDewpointWater temp
2018-Mar-23 11:40N 26°46' W 080°03'0 0.5
2018-Mar-23 11:30N 26°46' W 080°03'  
2018-Mar-20 11:02N 25°07' W 077°15'011.7
2018-Mar-20 11:00N 25°07' W 077°15'2 1.4
2018-Mar-20 09:45N 25°06' W 077°14'48 1.0
2018-Mar-18 10:26N 24°23' W 076°49'613.6
2018-Mar-18 09:59N 24°21' W 076°42'4 8.1
2018-Mar-18 09:30N 24°22' W 076°38'0 0.1
2018-Mar-18 09:01N 24°23' W 076°38'0 0.0
2018-Mar-18 08:30N 24°23' W 076°38'0 0.0
2018-Mar-18 08:00N 24°23' W 076°38'0 0.0
2018-Mar-18 07:30N 24°23' W 076°38'0 0.0
2018-Mar-18 07:00N 24°23' W 076°38'0 0.0
2018-Mar-18 06:30N 24°23' W 076°38'0 0.0
2018-Mar-18 06:00N 24°23' W 076°38'0 0.0
2018-Mar-18 05:30N 24°23' W 076°38'0 0.0
2018-Mar-18 05:00N 24°23' W 076°38'0 0.0
2018-Mar-18 04:30N 24°23' W 076°38'0 0.0
2018-Mar-18 04:00N 24°23' W 076°38'0 0.0
2018-Mar-18 03:30N 24°23' W 076°38'0 0.0
2018-Mar-18 03:00N 24°23' W 076°38'0 0.0
2018-Mar-18 02:28N 24°23' W 076°38'0 0.0
2018-Mar-18 02:00N 24°23' W 076°38'0 0.0
2018-Mar-18 01:30N 24°23' W 076°38'0 0.0
2018-Mar-18 01:00N 24°23' W 076°38'0 0.0
2018-Mar-18 00:26N 24°23' W 076°38'0 0.0
2018-Mar-18 00:00N 24°23' W 076°38'0 0.0
2018-Mar-17 23:30N 24°23' W 076°38'0 0.0
2018-Mar-17 23:00N 24°23' W 076°38'0 0.0
2018-Mar-17 22:30N 24°23' W 076°38'0 0.0
2018-Mar-17 22:00N 24°23' W 076°38'0 0.0
2018-Mar-17 21:31N 24°23' W 076°38'0 0.0
2018-Mar-17 21:00N 24°23' W 076°38'0 0.0
2018-Mar-17 20:30N 24°23' W 076°38'0 0.0
2018-Mar-17 20:00N 24°23' W 076°38'0 0.0
2018-Mar-17 19:30N 24°23' W 076°38'0 0.0
2018-Mar-17 19:00N 24°23' W 076°38'0 0.0
2018-Mar-17 18:30N 24°23' W 076°38'0 0.0
2018-Mar-17 18:00N 24°23' W 076°38'0 0.0
2018-Mar-17 17:30N 24°23' W 076°38'0 0.0
2018-Mar-17 16:49N 24°23' W 076°38'0 0.0
2018-Mar-17 16:14N 24°23' W 076°38'0 0.0
2018-Mar-17 16:01N 24°23' W 076°38'0 0.0
2018-Mar-17 15:30N 24°23' W 076°38'0 0.0
2018-Mar-17 15:00N 24°23' W 076°38'0 0.0
2018-Mar-17 14:30N 24°23' W 076°38'0 0.0
2018-Mar-17 14:00N 24°23' W 076°38'0 0.0
2018-Mar-17 13:30N 24°23' W 076°38'5 5.2
2018-Mar-17 12:30N 24°18' W 076°37'5 4.8
2018-Mar-17 11:30N 24°15' W 076°32'0 0.0
2018-Mar-17 11:00N 24°15' W 076°32'0 0.0
2018-Mar-17 10:30N 24°15' W 076°32'0 0.0
2018-Mar-17 10:00N 24°15' W 076°32'0 0.0
2018-Mar-17 09:30N 24°15' W 076°32'0 0.0
2018-Mar-17 09:00N 24°15' W 076°32'0 0.0
2018-Mar-17 08:30N 24°15' W 076°32'0 0.0
2018-Mar-17 08:00N 24°15' W 076°32'0 0.0
2018-Mar-17 07:30N 24°15' W 076°32'0 0.0
2018-Mar-17 07:00N 24°15' W 076°32'0 0.0
2018-Mar-17 06:30N 24°15' W 076°32'0 0.0
2018-Mar-17 06:00N 24°15' W 076°32'0 0.0
2018-Mar-17 05:30N 24°15' W 076°32'0 0.0
2018-Mar-17 05:00N 24°15' W 076°32'0 0.0
2018-Mar-17 04:30N 24°15' W 076°32'0 0.0
2018-Mar-17 04:00N 24°15' W 076°32'0 0.0
2018-Mar-17 03:30N 24°15' W 076°32'0 0.0
2018-Mar-17 03:00N 24°15' W 076°32'0 0.0
2018-Mar-17 02:30N 24°15' W 076°32'0 0.0
2018-Mar-17 02:00N 24°15' W 076°32'0 0.0
2018-Mar-17 01:30N 24°15' W 076°32'0 0.0
2018-Mar-17 01:00N 24°15' W 076°32'0 0.0
2018-Mar-17 00:30N 24°15' W 076°32'0 0.0
2018-Mar-16 23:58N 24°15' W 076°32'0 0.0
2018-Mar-16 23:30N 24°15' W 076°32'0 0.0
2018-Mar-16 23:00N 24°15' W 076°32'0 0.0
2018-Mar-16 22:30N 24°15' W 076°32'0 0.0
2018-Mar-16 22:00N 24°15' W 076°32'0 0.0
2018-Mar-16 21:30N 24°15' W 076°32'0 0.0
2018-Mar-16 21:00N 24°15' W 076°32'0 0.0
2018-Mar-16 20:30N 24°15' W 076°32'0 0.0
2018-Mar-16 20:00N 24°15' W 076°32'0 0.0
2018-Mar-16 19:30N 24°15' W 076°32'0 0.0
2018-Mar-16 18:23N 24°15' W 076°32'0 0.0
2018-Mar-16 18:00N 24°15' W 076°32'0 0.0
2018-Mar-16 17:30N 24°15' W 076°32'0 0.0
2018-Mar-16 17:00N 24°15' W 076°32'0 0.0
2018-Mar-16 16:27N 24°15' W 076°32'0 0.0
2018-Mar-16 16:00N 24°15' W 076°32'0 0.0
2018-Mar-16 15:30N 24°15' W 076°32'0 0.0
2018-Mar-16 15:00N 24°15' W 076°32'0 0.0
2018-Mar-16 14:30N 24°15' W 076°32'0 0.0
2018-Mar-16 14:00N 24°15' W 076°32'0 0.0
2018-Mar-16 13:30N 24°15' W 076°32'0 0.0
2018-Mar-16 13:00N 24°15' W 076°32'0 0.0
2018-Mar-16 12:30N 24°15' W 076°32'0 0.0
2018-Mar-16 12:00N 24°15' W 076°32'0 0.0
2018-Mar-16 11:30N 24°15' W 076°32'0 0.0
2018-Mar-16 11:00N 24°15' W 076°32'0 0.0
2018-Mar-16 10:30N 24°15' W 076°32'0 0.0
2018-Mar-16 10:00N 24°15' W 076°32'0 0.0
2018-Mar-16 09:30N 24°15' W 076°32'0 0.0
2018-Mar-16 09:00N 24°15' W 076°32'0 0.0
2018-Mar-16 08:30N 24°15' W 076°32'0 0.0
2018-Mar-16 08:00N 24°15' W 076°32'0 0.0
2018-Mar-16 07:30N 24°15' W 076°32'0 0.0
2018-Mar-16 07:00N 24°15' W 076°32'0 0.0
2018-Mar-16 06:30N 24°15' W 076°32'0 0.0
2018-Mar-16 06:00N 24°15' W 076°32'0 0.0
2018-Mar-16 05:30N 24°15' W 076°32'0 0.0
2018-Mar-16 05:00N 24°15' W 076°32'0 0.0
2018-Mar-16 04:30N 24°15' W 076°32'0 0.0
2018-Mar-16 04:00N 24°15' W 076°32'0 0.0
2018-Mar-16 03:30N 24°15' W 076°32'0 0.0
2018-Mar-16 03:00N 24°15' W 076°32'0 0.0
2018-Mar-16 02:30N 24°15' W 076°32'0 0.0
2018-Mar-16 02:00N 24°15' W 076°32'0 0.0
2018-Mar-16 01:30N 24°15' W 076°32'0 0.0
2018-Mar-16 00:57N 24°15' W 076°32'0 0.0
2018-Mar-16 00:24N 24°15' W 076°32'0 0.0
2018-Mar-16 00:00N 24°15' W 076°32'0 0.0
2018-Mar-15 23:27N 24°15' W 076°32'0 0.0
2018-Mar-15 23:00N 24°15' W 076°32'0 0.0
2018-Mar-15 22:30N 24°15' W 076°32'0 0.0
2018-Mar-15 22:00N 24°15' W 076°32'0 0.0
2018-Mar-15 21:30N 24°15' W 076°32'0 0.0
2018-Mar-15 21:00N 24°15' W 076°32'0 0.0
2018-Mar-15 18:00N 24°15' W 076°32'0 0.0
2018-Mar-15 17:30N 24°15' W 076°32'0 0.0
2018-Mar-15 17:00N 24°15' W 076°32'0 0.0
2018-Mar-15 16:31N 24°15' W 076°32'0 0.0
2018-Mar-15 16:00N 24°15' W 076°32'0 0.0
2018-Mar-15 15:30N 24°15' W 076°32'0 0.3
2018-Mar-15 15:00N 24°15' W 076°32'3 6.1
2018-Mar-15 14:30N 24°16' W 076°35'4 8.1
2018-Mar-15 14:00N 24°18' W 076°32'  

Dump ship's entire track history